Time;durP1;ratioP1;P1;durP2;ratioP2;P2;SDS_P1;SDS_P2;PMS_P1;PMS_P2;Temp;Humidity;BMP_temperature;BMP_pressure;BME280_temperature;BME280_humidity;BME280_pressure;Samples;Min_cycle;Max_cycle;Signal;HPM_P1;HPM_P2
2022/05/29 00:00:11;;;;;;;3.13;2.27;;;9.80;99.90;;;;;;5069608;28;20441;-77
2022/05/29 00:02:37;;;;;;;3.10;2.70;;;9.90;99.90;;;;;;5034906;28;20457;-76
2022/05/29 00:05:03;;;;;;;4.60;1.97;;;9.90;99.90;;;;;;5069169;28;20465;-76
2022/05/29 00:07:30;;;;;;;6.07;2.20;;;9.80;99.90;;;;;;5069425;28;20908;-76
2022/05/29 00:09:55;;;;;;;11.10;2.00;;;9.90;99.90;;;;;;5051360;28;20898;-76
2022/05/29 00:12:23;;;;;;;3.90;2.33;;;9.90;99.90;;;;;;5050852;28;20505;-76
2022/05/29 00:14:49;;;;;;;8.10;1.53;;;10.00;99.90;;;;;;5068678;28;20177;-76
2022/05/29 00:17:19;;;;;;;3.73;1.47;;;10.00;99.90;;;;;;5050468;28;20426;-76
2022/05/29 00:19:44;;;;;;;2.40;1.50;;;10.00;99.90;;;;;;5050873;28;20423;-76
2022/05/29 00:22:14;;;;;;;6.73;1.63;;;10.10;99.90;;;;;;5073137;28;20934;-76
2022/05/29 00:24:40;;;;;;;3.50;2.70;;;10.10;99.90;;;;;;5055126;28;20237;-77
2022/05/29 00:27:07;;;;;;;4.60;1.97;;;10.20;99.90;;;;;;5072488;28;20412;-76
2022/05/29 00:29:35;;;;;;;7.47;3.00;;;10.10;99.90;;;;;;5055161;28;21127;-77
2022/05/29 00:32:02;;;;;;;3.93;2.20;;;10.10;99.90;;;;;;5073110;28;20409;-77
2022/05/29 00:34:27;;;;;;;4.33;1.90;;;10.10;99.90;;;;;;5072971;28;20494;-77
2022/05/29 00:36:53;;;;;;;4.03;2.23;;;10.10;99.90;;;;;;5054660;28;20435;-77
2022/05/29 00:39:19;;;;;;;7.90;2.00;;;10.00;99.90;;;;;;5073146;28;20180;-76
2022/05/29 00:41:45;;;;;;;4.03;1.90;;;9.90;99.90;;;;;;5054270;28;20234;-77
2022/05/29 00:44:21;;;;;;;3.60;2.20;;;9.90;99.90;;;;;;5072080;28;21056;-77
2022/05/29 00:46:52;;;;;;;8.87;2.50;;;10.00;99.90;;;;;;5055175;28;20487;-77
2022/05/29 00:49:29;;;;;;;3.47;1.80;;;10.00;99.90;;;;;;5054720;28;20479;-76
2022/05/29 00:52:11;;;;;;;3.63;1.90;;;9.90;99.90;;;;;;5071896;28;20510;-75
2022/05/29 00:54:42;;;;;;;2.43;2.00;;;9.70;99.90;;;;;;5071977;28;20429;-75
2022/05/29 00:57:14;;;;;;;4.70;1.90;;;9.70;99.90;;;;;;5072185;28;20418;-75
2022/05/29 00:59:40;;;;;;;5.00;1.83;;;9.60;99.90;;;;;;5072237;28;20781;-75
2022/05/29 01:02:06;;;;;;;4.90;2.33;;;9.60;99.90;;;;;;5072421;28;20421;-75
2022/05/29 01:04:34;;;;;;;5.00;2.60;;;9.50;99.90;;;;;;5072420;28;20588;-75
2022/05/29 01:07:08;;;;;;;3.23;2.43;;;9.60;99.90;;;;;;5072426;28;20183;-75
2022/05/29 01:09:36;;;;;;;4.20;2.30;;;9.60;99.90;;;;;;5054346;28;20434;-75
2022/05/29 01:12:08;;;;;;;3.90;2.00;;;9.70;99.90;;;;;;5072543;28;20418;-74
2022/05/29 01:14:55;;;;;;;2.17;1.90;;;9.70;99.90;;;;;;5072580;28;20424;-75
2022/05/29 01:17:24;;;;;;;4.20;1.80;;;9.80;99.90;;;;;;5072516;28;20419;-75
2022/05/29 01:19:57;;;;;;;8.83;2.20;;;9.60;99.90;;;;;;5072559;28;20424;-74
2022/05/29 01:22:40;;;;;;;4.40;2.37;;;9.30;99.90;;;;;;5072104;28;20831;-75
2022/05/29 01:25:27;;;;;;;3.30;2.00;;;9.10;99.90;;;;;;5071720;28;20558;-74
2022/05/29 01:28:04;;;;;;;6.83;2.40;;;9.10;99.90;;;;;;5071811;28;20899;-75
2022/05/29 01:30:34;;;;;;;4.90;2.00;;;9.20;99.90;;;;;;5071425;28;20420;-75
2022/05/29 01:33:41;;;;;;;2.70;1.57;;;9.30;99.90;;;;;;5070289;28;20437;-75
2022/05/29 01:36:14;;;;;;;8.53;2.07;;;9.50;99.90;;;;;;5044804;28;20430;-75
2022/05/29 01:38:51;;;;;;;4.83;2.27;;;9.60;99.90;;;;;;5053380;28;20510;-75
2022/05/29 01:41:26;;;;;;;5.30;2.50;;;9.60;99.90;;;;;;5053267;28;20435;-74
2022/05/29 01:44:15;;;;;;;4.50;2.63;;;9.70;99.90;;;;;;5072142;28;20486;-73
2022/05/29 01:46:45;;;;;;;4.90;2.30;;;9.70;99.90;;;;;;5071109;28;20789;-74
2022/05/29 01:49:28;;;;;;;3.53;1.93;;;9.70;99.90;;;;;;5071476;28;20406;-74
2022/05/29 01:51:56;;;;;;;3.00;1.67;;;9.80;99.90;;;;;;5071303;28;20433;-74
2022/05/29 01:54:34;;;;;;;2.70;2.07;;;9.80;99.90;;;;;;5053143;28;20453;-75
2022/05/29 01:57:17;;;;;;;2.90;1.80;;;9.80;99.90;;;;;;5053172;28;20424;-75
2022/05/29 02:00:19;;;;;;;7.90;1.73;;;9.80;99.90;;;;;;5071113;28;20418;-74
2022/05/29 02:02:49;;;;;;;4.07;2.27;;;9.80;99.90;;;;;;5049781;28;20474;-73
2022/05/29 02:05:23;;;;;;;4.50;2.20;;;9.90;99.90;;;;;;5052680;28;21074;-73
2022/05/29 02:07:55;;;;;;;6.73;2.50;;;9.90;99.90;;;;;;5070788;28;20840;-74
2022/05/29 02:10:44;;;;;;;3.17;1.93;;;10.00;99.90;;;;;;5070733;28;20420;-74
2022/05/29 02:13:47;;;;;;;2.87;1.87;;;10.00;99.90;;;;;;5070659;28;20450;-75
2022/05/29 02:16:38;;;;;;;7.70;2.47;;;10.00;99.90;;;;;;5038957;28;20417;-73
2022/05/29 02:19:20;;;;;;;1.80;1.57;;;10.00;99.90;;;;;;5055616;28;20426;-73
2022/05/29 02:22:03;;;;;;;1.97;1.63;;;10.00;99.90;;;;;;5070288;28;20516;-73
2022/05/29 02:24:35;;;;;;;2.03;1.47;;;10.00;99.90;;;;;;5051841;28;20545;-73
2022/05/29 02:27:26;;;;;;;4.77;2.30;;;10.00;99.90;;;;;;5070210;28;20425;-73
2022/05/29 02:29:53;;;;;;;4.40;1.80;;;9.90;99.90;;;;;;5051891;28;20845;-73
2022/05/29 02:32:43;;;;;;;3.53;2.20;;;9.90;99.90;;;;;;5051934;28;20424;-73
2022/05/29 02:35:08;;;;;;;5.10;2.20;;;10.00;99.90;;;;;;5069927;28;20424;-74
2022/05/29 02:37:53;;;;;;;3.50;2.00;;;9.80;99.90;;;;;;5052005;28;20431;-74
2022/05/29 02:40:38;;;;;;;3.10;2.07;;;9.80;99.90;;;;;;5070000;28;20188;-74
2022/05/29 02:43:27;;;;;;;7.80;2.00;;;9.70;99.90;;;;;;5069966;28;20461;-75
2022/05/29 02:46:04;;;;;;;2.43;2.00;;;9.80;99.90;;;;;;5069796;28;20978;-74
2022/05/29 02:48:45;;;;;;;3.73;2.27;;;9.80;99.90;;;;;;5069805;28;20500;-75
2022/05/29 02:51:42;;;;;;;3.40;1.83;;;9.80;99.90;;;;;;5069958;28;20413;-76
2022/05/29 02:54:13;;;;;;;2.60;2.10;;;9.70;99.90;;;;;;5065381;28;20950;-75
2022/05/29 02:56:40;;;;;;;3.70;2.10;;;9.70;99.90;;;;;;5051421;28;20472;-76
2022/05/29 02:59:06;;;;;;;7.53;2.30;;;9.60;99.90;;;;;;5051486;28;20434;-76
2022/05/29 03:01:59;;;;;;;4.53;2.00;;;9.60;99.90;;;;;;5035159;28;20426;-76
2022/05/29 03:04:48;;;;;;;2.60;2.00;;;9.50;99.90;;;;;;5069383;28;20472;-77
2022/05/29 03:07:35;;;;;;;4.37;2.40;;;9.50;99.90;;;;;;5069334;28;20420;-77
2022/05/29 03:10:14;;;;;;;3.10;2.20;;;9.50;99.90;;;;;;5051143;28;20434;-76
2022/05/29 03:12:56;;;;;;;7.53;2.03;;;9.60;99.90;;;;;;5069229;28;20466;-77
2022/05/29 03:15:30;;;;;;;2.70;2.10;;;9.60;99.90;;;;;;5069636;28;20487;-77
2022/05/29 03:18:28;;;;;;;3.23;1.70;;;9.60;99.90;;;;;;5069185;28;20423;-77
2022/05/29 03:21:24;;;;;;;3.60;2.03;;;9.70;99.90;;;;;;5069156;28;20423;-77
2022/05/29 03:24:02;;;;;;;4.77;2.47;;;9.70;99.90;;;;;;5069019;28;20444;-76
2022/05/29 03:26:32;;;;;;;9.10;2.63;;;9.60;99.90;;;;;;5050954;28;20436;-75
2022/05/29 03:29:08;;;;;;;5.13;2.03;;;9.60;99.90;;;;;;5050846;28;20874;-75
2022/05/29 03:31:35;;;;;;;3.73;2.57;;;9.60;99.90;;;;;;5069055;28;20455;-76
2022/05/29 03:34:02;;;;;;;10.03;2.57;;;9.70;99.90;;;;;;5051332;28;20446;-78
2022/05/29 03:36:29;;;;;;;5.43;3.00;;;9.70;99.90;;;;;;5036923;28;20805;-78
2022/05/29 03:38:55;;;;;;;3.93;3.20;;;9.60;99.90;;;;;;5054383;28;20552;-78
2022/05/29 03:41:43;;;;;;;6.27;2.97;;;9.60;99.90;;;;;;5071601;28;20478;-78
2022/05/29 03:44:12;;;;;;;5.20;2.53;;;9.70;99.90;;;;;;5052726;28;20502;-78
2022/05/29 03:46:39;;;;;;;3.63;2.33;;;9.70;99.90;;;;;;5055110;28;20451;-77
2022/05/29 03:49:09;;;;;;;2.57;2.37;;;9.90;99.90;;;;;;5072315;28;20808;-78
2022/05/29 03:51:36;;;;;;;3.40;2.63;;;9.90;99.90;;;;;;5072636;28;20505;-77
2022/05/29 03:54:04;;;;;;;3.77;2.90;;;9.60;99.90;;;;;;5072472;28;20445;-76
2022/05/29 03:56:30;;;;;;;6.00;2.60;;;9.60;99.90;;;;;;5068192;28;20427;-76
2022/05/29 03:58:56;;;;;;;6.37;2.30;;;9.60;99.90;;;;;;5068597;28;20971;-76
2022/05/29 04:01:23;;;;;;;6.17;2.73;;;9.50;99.90;;;;;;5069158;28;20441;-78
2022/05/29 04:03:49;;;;;;;8.00;2.53;;;9.40;99.90;;;;;;5052691;28;20441;-78
2022/05/29 04:06:15;;;;;;;3.80;2.53;;;9.40;99.90;;;;;;5069342;28;21024;-77
2022/05/29 04:14:09;;;;;;;4.00;2.20;;;9.40;99.90;;;;;;5068850;28;20527;-77
2022/05/29 04:16:35;;;;;;;3.90;2.67;;;9.40;99.90;;;;;;5070491;28;20521;-79
2022/05/29 04:19:01;;;;;;;4.50;2.50;;;9.40;99.90;;;;;;5070973;28;20416;-79
2022/05/29 04:21:26;;;;;;;6.50;2.57;;;9.40;99.90;;;;;;5052338;28;20263;-79
2022/05/29 04:23:52;;;;;;;4.07;2.33;;;9.50;99.90;;;;;;5071047;28;20197;-79
2022/05/29 04:26:18;;;;;;;13.17;2.53;;;9.50;99.90;;;;;;5070309;28;20225;-79
2022/05/29 04:28:44;;;;;;;8.50;3.00;;;9.60;99.90;;;;;;5071013;28;20259;-78
2022/05/29 04:31:10;;;;;;;3.80;2.33;;;9.50;99.90;;;;;;5071069;28;20421;-78
2022/05/29 04:33:36;;;;;;;4.23;2.67;;;9.40;99.90;;;;;;5070759;28;20448;-78
2022/05/29 04:36:02;;;;;;;5.33;2.70;;;9.40;99.90;;;;;;5070674;28;20923;-79
2022/05/29 04:38:30;;;;;;;3.87;2.90;;;9.40;99.90;;;;;;5052746;28;20216;-78
2022/05/29 04:40:57;;;;;;;5.67;3.00;;;9.50;99.90;;;;;;5070381;28;20185;-78
2022/05/29 04:43:24;;;;;;;4.50;2.80;;;9.50;99.90;;;;;;5070677;28;20462;-78
2022/05/29 04:45:54;;;;;;;5.90;3.03;;;9.50;99.90;;;;;;5070634;28;20469;-78
2022/05/29 04:48:20;;;;;;;6.13;2.93;;;9.60;99.90;;;;;;5070378;28;20417;-79
2022/05/29 04:50:46;;;;;;;5.50;2.87;;;9.60;99.90;;;;;;5035785;28;20425;-78
2022/05/29 04:53:12;;;;;;;4.10;3.33;;;9.60;99.90;;;;;;5037101;28;20446;-78
2022/05/29 04:55:42;;;;;;;6.70;3.10;;;9.70;99.90;;;;;;5053157;28;20192;-77
2022/05/29 04:58:08;;;;;;;5.73;3.53;;;9.70;99.90;;;;;;5068807;28;20414;-76
2022/05/29 05:00:34;;;;;;;7.03;3.40;;;9.80;99.90;;;;;;5050617;28;20421;-76
2022/05/29 05:03:01;;;;;;;3.53;2.77;;;9.90;99.90;;;;;;5050515;28;20465;-77
2022/05/29 05:05:27;;;;;;;3.20;2.10;;;10.10;99.90;;;;;;5068180;28;20463;-76
2022/05/29 05:07:53;;;;;;;6.37;2.63;;;10.20;99.90;;;;;;5053879;28;20914;-76
2022/05/29 05:10:18;;;;;;;7.87;3.70;;;10.40;99.90;;;;;;5037530;28;20421;-76
2022/05/29 05:12:45;;;;;;;3.40;2.80;;;10.50;99.90;;;;;;5053810;28;20214;-76
2022/05/29 05:15:13;;;;;;;7.47;3.67;;;10.60;99.90;;;;;;5071806;28;20179;-78
2022/05/29 05:17:39;;;;;;;5.50;2.77;;;10.70;99.90;;;;;;5072035;28;20435;-77
2022/05/29 05:20:06;;;;;;;4.50;2.57;;;10.80;99.90;;;;;;5071698;28;20780;-76
2022/05/29 05:22:32;;;;;;;5.57;2.63;;;10.90;99.90;;;;;;5071882;28;20204;-77
2022/05/29 05:24:58;;;;;;;4.57;2.47;;;10.90;99.90;;;;;;5071905;28;20469;-79
2022/05/29 05:27:23;;;;;;;5.20;2.63;;;10.90;99.90;;;;;;5072440;28;20422;-77
2022/05/29 05:29:49;;;;;;;5.10;2.77;;;11.10;99.90;;;;;;5053804;28;20217;-77
2022/05/29 05:32:14;;;;;;;12.00;3.10;;;11.20;99.90;;;;;;5053609;28;20231;-76
2022/05/29 05:34:41;;;;;;;7.43;2.87;;;11.30;99.90;;;;;;5054038;28;20696;-76
2022/05/29 05:37:08;;;;;;;7.93;2.97;;;11.40;99.90;;;;;;5053837;28;20739;-76
2022/05/29 05:39:34;;;;;;;3.53;3.03;;;11.50;99.90;;;;;;5072449;28;20538;-75
2022/05/29 05:42:00;;;;;;;6.50;2.57;;;11.60;99.90;;;;;;5071983;28;21007;-77
2022/05/29 05:44:25;;;;;;;8.50;3.00;;;11.50;99.90;;;;;;5036497;28;20482;-76
2022/05/29 05:46:55;;;;;;;3.90;2.50;;;11.50;99.90;;;;;;5072850;28;20650;-74
2022/05/29 05:49:22;;;;;;;4.13;2.50;;;11.50;99.90;;;;;;5071970;28;20245;-79
2022/05/29 05:51:48;;;;;;;4.60;2.43;;;11.50;99.90;;;;;;5053747;28;20486;-80
2022/05/29 05:54:14;;;;;;;3.83;2.27;;;11.40;99.90;;;;;;5037629;28;20435;-79
2022/05/29 05:56:44;;;;;;;4.33;2.50;;;11.40;99.90;;;;;;5072214;28;20496;-79
2022/05/29 05:59:10;;;;;;;3.77;2.70;;;11.30;99.90;;;;;;5053844;28;20419;-78
2022/05/29 06:01:36;;;;;;;8.50;3.50;;;11.20;99.90;;;;;;5053635;28;20427;-79
2022/05/29 06:04:02;;;;;;;8.13;2.87;;;11.20;99.90;;;;;;5054240;28;20437;-79
2022/05/29 06:06:27;;;;;;;3.53;2.40;;;11.20;99.90;;;;;;5072181;28;20552;-78
2022/05/29 06:08:53;;;;;;;4.60;2.40;;;11.30;99.90;;;;;;5052591;28;20418;-77
2022/05/29 06:11:19;;;;;;;4.23;2.47;;;11.50;99.90;;;;;;5071210;28;20187;-78
2022/05/29 06:13:44;;;;;;;6.00;2.73;;;11.80;99.90;;;;;;5037186;28;20575;-78
2022/05/29 06:16:12;;;;;;;3.93;2.43;;;12.00;99.90;;;;;;5072017;28;20185;-78
2022/05/29 06:18:37;;;;;;;5.00;2.40;;;12.10;99.90;;;;;;5053432;28;20189;-77
2022/05/29 06:21:07;;;;;;;9.87;2.83;;;12.30;99.90;;;;;;5071833;28;20417;-77
2022/05/29 06:23:35;;;;;;;7.47;2.50;;;12.50;99.90;;;;;;5053729;28;20213;-78
2022/05/29 06:26:11;;;;;;;4.70;2.23;;;12.60;99.90;;;;;;5071462;28;20975;-77
2022/05/29 06:28:36;;;;;;;9.77;3.30;;;12.60;99.90;;;;;;5053834;28;20868;-78
2022/05/29 06:31:04;;;;;;;7.70;2.70;;;12.70;99.90;;;;;;5071507;28;20460;-78
2022/05/29 06:33:30;;;;;;;7.40;2.10;;;12.80;99.90;;;;;;5071409;28;20235;-78
2022/05/29 06:36:06;;;;;;;4.10;2.37;;;13.00;99.90;;;;;;5053553;28;20468;-78
2022/05/29 06:38:31;;;;;;;3.20;1.97;;;13.00;99.90;;;;;;5071561;28;20440;-78
2022/05/29 06:40:57;;;;;;;3.63;1.60;;;13.00;99.90;;;;;;5070994;28;20449;-79
2022/05/29 06:43:23;;;;;;;4.40;1.80;;;13.00;99.90;;;;;;5071355;28;20326;-78
2022/05/29 06:45:55;;;;;;;2.47;1.80;;;13.10;99.90;;;;;;5053335;28;20465;-78
2022/05/29 06:48:20;;;;;;;8.10;2.20;;;13.20;99.90;;;;;;5071347;28;20190;-78
2022/05/29 06:50:46;;;;;;;3.70;1.80;;;13.40;99.90;;;;;;5036280;28;20432;-78
2022/05/29 06:53:12;;;;;;;2.20;1.53;;;13.20;98.80;;;;;;5072872;28;20225;-78
2022/05/29 06:55:37;;;;;;;3.23;1.67;;;13.20;99.90;;;;;;5054459;28;20291;-78
2022/05/29 06:58:03;;;;;;;7.90;1.93;;;13.10;99.90;;;;;;5054772;28;20187;-78
2022/05/29 07:08:44;;;;;;;3.20;1.43;;;12.90;99.90;;;;;;5055572;28;20479;-78
2022/05/29 07:11:17;;;;;;;2.43;1.80;;;12.90;99.90;;;;;;5052398;28;21000;-78
2022/05/29 07:13:43;;;;;;;5.83;1.87;;;12.80;99.90;;;;;;5069685;28;20447;-78
2022/05/29 07:16:09;;;;;;;3.90;1.83;;;12.80;99.90;;;;;;5069738;28;20935;-78
2022/05/29 07:18:35;;;;;;;4.73;2.33;;;12.70;99.90;;;;;;5069739;28;20450;-79
2022/05/29 07:21:03;;;;;;;4.50;1.70;;;12.70;99.90;;;;;;5051347;28;20288;-78
2022/05/29 07:23:30;;;;;;;9.03;2.10;;;12.60;99.90;;;;;;5068846;28;20491;-78
2022/05/29 07:25:57;;;;;;;2.77;1.83;;;12.60;99.90;;;;;;5068855;28;20838;-79
2022/05/29 07:28:23;;;;;;;5.87;1.83;;;12.70;99.90;;;;;;5068785;28;20425;-78
2022/05/29 07:30:50;;;;;;;5.03;2.50;;;12.70;99.90;;;;;;5067974;28;20468;-78
2022/05/29 07:33:16;;;;;;;10.43;4.13;;;12.60;99.90;;;;;;5068747;28;20440;-78
2022/05/29 07:35:42;;;;;;;3.20;2.70;;;12.60;99.90;;;;;;5051288;28;20440;-78
2022/05/29 07:38:08;;;;;;;8.03;3.60;;;12.60;99.90;;;;;;5051364;28;20458;-78
2022/05/29 07:40:34;;;;;;;8.53;3.83;;;12.40;99.90;;;;;;5069123;28;20266;-78
2022/05/29 07:45:45;;;;;;;2.80;2.40;;;12.30;99.90;;;;;;5068658;28;20634;-78
2022/05/29 07:48:13;;;;;;;4.03;2.70;;;12.30;99.90;;;;;;5068693;28;20797;-78
2022/05/29 07:50:38;;;;;;;9.43;3.40;;;12.20;99.90;;;;;;5050564;28;20422;-78
2022/05/29 07:53:04;;;;;;;4.37;2.63;;;12.20;99.90;;;;;;5068030;28;20443;-78
2022/05/29 07:55:30;;;;;;;3.90;2.73;;;12.20;99.90;;;;;;5049953;28;20183;-79
2022/05/29 07:57:55;;;;;;;6.30;2.70;;;12.20;99.90;;;;;;5033472;28;20566;-78
2022/05/29 08:00:22;;;;;;;3.80;2.30;;;12.10;99.90;;;;;;5049754;28;20197;-78
2022/05/29 08:02:48;;;;;;;5.10;2.47;;;12.10;99.90;;;;;;5067412;28;20210;-78
2022/05/29 08:05:18;;;;;;;2.70;2.50;;;12.10;99.90;;;;;;5067445;28;20459;-78
2022/05/29 08:07:44;;;;;;;3.73;2.20;;;12.10;99.90;;;;;;5049285;28;20424;-75
2022/05/29 08:10:12;;;;;;;2.70;2.30;;;12.00;99.90;;;;;;5067142;28;20909;-75
2022/05/29 08:12:39;;;;;;;3.80;2.27;;;12.00;99.90;;;;;;5049049;28;20510;-76
2022/05/29 08:15:05;;;;;;;3.20;2.13;;;12.00;99.90;;;;;;5067201;28;20421;-76
2022/05/29 08:17:31;;;;;;;4.63;2.47;;;12.10;99.90;;;;;;5049104;28;20442;-76
2022/05/29 08:19:58;;;;;;;4.10;2.43;;;12.00;99.90;;;;;;5048937;28;20444;-76
2022/05/29 08:22:24;;;;;;;7.27;2.90;;;12.00;99.90;;;;;;5066796;28;20431;-76
2022/05/29 08:30:38;;;;;;;3.77;2.93;;;12.00;99.90;;;;;;5051936;28;20470;-76
2022/05/29 08:33:05;;;;;;;5.10;2.90;;;12.00;99.90;;;;;;5066692;28;20517;-76
2022/05/29 08:35:32;;;;;;;3.80;3.10;;;12.00;99.90;;;;;;5067080;28;20505;-76
2022/05/29 08:37:59;;;;;;;4.90;3.00;;;12.00;99.90;;;;;;5049733;28;20457;-76
2022/05/29 08:40:26;;;;;;;3.97;2.90;;;12.10;99.90;;;;;;5048846;28;20435;-76
2022/05/29 08:42:52;;;;;;;4.53;2.90;;;12.10;99.90;;;;;;5051977;28;20467;-77
2022/05/29 08:45:18;;;;;;;2.63;2.43;;;12.20;99.90;;;;;;5052695;28;20510;-76
2022/05/29 08:47:46;;;;;;;7.47;2.77;;;12.20;99.90;;;;;;5052348;28;20482;-76
2022/05/29 08:50:32;;;;;;;4.83;3.37;;;12.30;99.90;;;;;;5070819;28;20445;-76
2022/05/29 08:53:06;;;;;;;9.33;3.30;;;12.30;99.90;;;;;;5070579;28;20486;-76
2022/05/29 08:55:36;;;;;;;4.17;2.80;;;12.40;99.90;;;;;;5070629;28;20437;-76
2022/05/29 08:58:13;;;;;;;5.60;3.83;;;12.40;99.90;;;;;;5070658;28;20417;-76
2022/05/29 09:01:07;;;;;;;11.67;3.50;;;12.50;99.90;;;;;;5052219;28;20435;-76
2022/05/29 09:04:03;;;;;;;7.13;3.00;;;12.40;99.90;;;;;;5070448;28;20432;-76
2022/05/29 09:06:47;;;;;;;1.70;1.60;;;12.20;99.90;;;;;;5052136;28;20467;-76
2022/05/29 09:09:15;;;;;;;2.50;1.40;;;12.30;99.90;;;;;;5070207;28;20408;-77
2022/05/29 09:11:51;;;;;;;3.90;1.47;;;12.60;99.90;;;;;;5052558;28;20832;-78
2022/05/29 09:14:54;;;;;;;4.60;2.30;;;12.80;99.90;;;;;;5053592;28;20878;-78
2022/05/29 09:17:23;;;;;;;2.60;1.37;;;13.20;99.90;;;;;;5053434;28;20416;-78
2022/05/29 09:19:55;;;;;;;5.07;2.07;;;14.00;99.90;;;;;;5071946;28;20821;-78
2022/05/29 09:22:37;;;;;;;4.50;1.93;;;14.50;99.90;;;;;;5071557;28;20398;-78
2022/05/29 09:25:34;;;;;;;3.47;1.73;;;15.30;99.90;;;;;;5072065;28;20453;-79
2022/05/29 09:28:07;;;;;;;2.10;1.57;;;15.80;99.90;;;;;;5072405;28;20409;-78
2022/05/29 09:30:33;;;;;;;15.93;2.23;;;16.40;99.90;;;;;;5054587;28;20433;-79
2022/05/29 09:33:14;;;;;;;3.10;1.70;;;16.30;95.90;;;;;;5038299;28;20441;-79
2022/05/29 09:35:58;;;;;;;2.70;1.33;;;16.50;99.90;;;;;;5073044;28;20424;-79
2022/05/29 09:38:31;;;;;;;3.43;2.30;;;16.50;98.90;;;;;;5073412;28;20411;-79
2022/05/29 09:40:59;;;;;;;2.27;1.73;;;16.20;96.90;;;;;;5073702;28;20398;-78
2022/05/29 09:43:27;;;;;;;3.87;1.53;;;15.60;98.40;;;;;;5065135;28;20974;-78
2022/05/29 09:45:53;;;;;;;14.20;2.70;;;14.90;99.90;;;;;;5035901;28;20468;-79
2022/05/29 09:51:18;;;;;;;3.83;1.53;;;13.70;99.90;;;;;;5054028;28;20406;-82
2022/05/29 09:53:51;;;;;;;1.87;1.37;;;13.20;99.90;;;;;;5053323;28;21044;-80
2022/05/29 09:56:31;;;;;;;3.70;2.23;;;12.90;99.90;;;;;;5054090;28;20418;-80
2022/05/29 09:59:26;;;;;;;3.43;2.23;;;12.70;99.90;;;;;;5053207;28;20480;-80
2022/05/29 10:02:01;;;;;;;3.20;1.93;;;12.50;99.90;;;;;;5002500;28;20433;-82
2022/05/29 10:04:37;;;;;;;7.53;2.77;;;12.30;99.90;;;;;;5054649;28;20517;-80
2022/05/29 10:07:14;;;;;;;16.97;5.03;;;12.20;99.90;;;;;;5036513;28;20806;-80
2022/05/29 10:10:03;;;;;;;10.67;4.07;;;11.90;99.90;;;;;;5052037;28;20495;-80
2022/05/29 10:12:37;;;;;;;11.10;3.50;;;11.20;99.90;;;;;;5036271;28;20413;-80
2022/05/29 10:15:03;;;;;;;8.63;3.67;;;10.80;99.90;;;;;;5034883;28;20949;-79
2022/05/29 10:17:28;;;;;;;8.17;3.30;;;10.60;99.90;;;;;;5036940;28;20431;-81
2022/05/29 10:19:54;;;;;;;9.80;3.97;;;10.30;99.90;;;;;;5053559;28;20424;-78
2022/05/29 10:22:27;;;;;;;11.67;3.30;;;10.20;99.90;;;;;;5031510;28;20939;-78
2022/05/29 10:24:54;;;;;;;11.17;3.57;;;10.00;99.90;;;;;;5051782;28;20194;-80
2022/05/29 10:27:32;;;;;;;9.20;3.10;;;10.00;99.90;;;;;;5052702;28;21004;-80
2022/05/29 10:30:04;;;;;;;13.20;4.17;;;10.10;99.90;;;;;;5036520;28;20424;-80
2022/05/29 10:32:33;;;;;;;11.20;4.63;;;10.10;99.90;;;;;;5018301;28;20790;-81
2022/05/29 10:35:25;;;;;;;8.33;3.60;;;10.10;99.90;;;;;;5052463;28;20929;-82
2022/05/29 10:37:52;;;;;;;10.73;2.90;;;10.20;99.90;;;;;;5035139;28;20475;-80
2022/05/29 10:40:26;;;;;;;6.97;3.20;;;10.20;99.90;;;;;;5031940;28;21004;-79
2022/05/29 10:42:55;;;;;;;8.10;3.00;;;10.20;99.90;;;;;;5053191;28;20484;-80
2022/05/29 10:45:23;;;;;;;6.70;3.20;;;10.20;99.90;;;;;;5052113;28;20867;-79
2022/05/29 10:48:03;;;;;;;8.80;2.93;;;10.20;99.90;;;;;;5069805;28;20421;-80
2022/05/29 10:50:53;;;;;;;10.90;3.80;;;10.30;99.90;;;;;;5069948;28;20390;-80
2022/05/29 10:53:50;;;;;;;5.50;2.20;;;10.40;99.90;;;;;;5051294;28;20445;-78
2022/05/29 10:56:30;;;;;;;3.20;1.90;;;10.30;99.90;;;;;;5068601;28;20475;-78
2022/05/29 10:59:23;;;;;;;3.63;1.83;;;10.10;99.90;;;;;;5068412;28;20427;-78
2022/05/29 11:04:54;;;;;;;6.40;1.57;;;9.90;99.90;;;;;;5068754;28;20517;-80
2022/05/29 11:07:42;;;;;;;4.50;1.60;;;9.80;99.90;;;;;;5050837;28;20422;-79
2022/05/29 11:10:20;;;;;;;2.50;1.40;;;9.80;99.90;;;;;;5068793;28;20428;-79
2022/05/29 11:13:00;;;;;;;3.40;1.43;;;9.80;99.90;;;;;;5068527;28;20431;-79
2022/05/29 11:15:54;;;;;;;2.33;1.80;;;9.80;99.90;;;;;;5050279;28;20910;-79
2022/05/29 11:18:29;;;;;;;3.80;1.67;;;9.80;99.90;;;;;;5049889;28;20423;-79
2022/05/29 11:20:58;;;;;;;1.80;1.70;;;9.90;99.90;;;;;;5068265;28;20429;-79
2022/05/29 11:23:38;;;;;;;2.30;1.50;;;10.00;99.90;;;;;;5068246;28;20891;-79
2022/05/29 11:26:36;;;;;;;1.60;1.50;;;10.20;99.90;;;;;;5068021;28;20848;-79
2022/05/29 11:29:29;;;;;;;2.70;1.50;;;10.20;99.90;;;;;;5051244;28;20436;-79
2022/05/29 11:32:22;;;;;;;1.70;1.10;;;10.20;99.90;;;;;;5069760;28;20964;-79
2022/05/29 11:35:06;;;;;;;1.30;1.20;;;10.20;99.90;;;;;;5051865;28;20418;-79
2022/05/29 11:38:03;;;;;;;1.50;1.40;;;10.10;99.90;;;;;;5051272;28;20410;-80
2022/05/29 11:40:39;;;;;;;2.13;1.17;;;10.20;99.90;;;;;;5069489;28;21008;-80
2022/05/29 11:43:26;;;;;;;1.77;1.30;;;10.30;99.90;;;;;;5050931;28;20813;-80
2022/05/29 11:51:56;;;;;;;7.53;1.23;;;10.40;99.90;;;;;;5069699;28;20389;-80
2022/05/29 11:54:39;;;;;;;2.07;1.27;;;10.60;99.90;;;;;;5069137;28;20540;-80
2022/05/29 11:57:32;;;;;;;1.43;1.33;;;10.70;99.90;;;;;;5070024;28;20412;-80
2022/05/29 12:00:08;;;;;;;5.63;1.70;;;10.80;99.90;;;;;;5072531;28;20514;-80
2022/05/29 12:03:13;;;;;;;3.57;1.43;;;11.00;99.90;;;;;;5051119;28;20444;-80
2022/05/29 12:05:55;;;;;;;2.33;1.70;;;11.10;99.90;;;;;;5049750;28;20460;-81
2022/05/29 12:08:44;;;;;;;2.47;1.20;;;11.30;99.90;;;;;;5051013;28;20419;-80
2022/05/29 12:11:32;;;;;;;1.47;1.37;;;11.40;99.90;;;;;;5068707;28;20423;-80
2022/05/29 12:14:01;;;;;;;1.97;1.00;;;11.80;99.90;;;;;;5050131;28;20442;-80
2022/05/29 12:16:30;;;;;;;2.70;1.17;;;12.20;99.90;;;;;;5070477;28;20415;-80
2022/05/29 12:18:57;;;;;;;1.40;0.90;;;12.40;99.90;;;;;;5070791;28;20870;-80
2022/05/29 12:21:58;;;;;;;1.30;1.20;;;12.90;99.90;;;;;;5068608;28;20443;-81
2022/05/29 12:24:32;;;;;;;1.10;0.80;;;12.90;99.90;;;;;;5067724;28;20432;-81
2022/05/29 12:27:22;;;;;;;1.47;1.30;;;13.20;99.90;;;;;;5049469;28;20934;-80
2022/05/29 12:30:00;;;;;;;2.90;1.43;;;13.20;99.90;;;;;;5049584;28;20421;-80
2022/05/29 12:32:30;;;;;;;3.07;1.47;;;13.00;99.90;;;;;;5068045;28;20458;-80
2022/05/29 12:35:07;;;;;;;1.40;1.20;;;12.70;99.90;;;;;;5050671;28;20482;-80
2022/05/29 12:38:00;;;;;;;1.33;1.00;;;12.80;99.90;;;;;;5068645;28;20410;-80
2022/05/29 12:40:54;;;;;;;2.50;1.10;;;12.70;99.90;;;;;;5049895;28;20531;-80
2022/05/29 12:43:28;;;;;;;2.43;1.10;;;12.80;99.90;;;;;;5049502;28;20527;-79
2022/05/29 12:46:03;;;;;;;2.03;1.30;;;13.10;99.90;;;;;;5050066;28;20529;-80
2022/05/29 12:48:44;;;;;;;2.43;1.30;;;13.20;99.90;;;;;;5049902;28;20456;-80
2022/05/29 12:51:16;;;;;;;2.43;1.10;;;13.10;99.90;;;;;;5067855;28;20511;-80
2022/05/29 12:54:06;;;;;;;2.20;1.30;;;13.00;99.90;;;;;;5068209;28;20491;-80
2022/05/29 12:56:52;;;;;;;3.87;2.93;;;13.10;99.90;;;;;;5049425;28;20439;-80
2022/05/29 12:59:56;;;;;;;3.20;2.90;;;13.00;99.90;;;;;;5067883;28;20477;-80
2022/05/29 13:02:59;;;;;;;4.73;3.70;;;13.30;99.90;;;;;;4966522;28;20466;-81
2022/05/29 13:05:24;;;;;;;3.60;0.93;;;14.00;99.90;;;;;;4967064;28;20468;-82
2022/05/29 13:08:14;;;;;;;3.13;1.20;;;14.20;99.90;;;;;;5027984;28;20429;-81
2022/05/29 13:10:44;;;;;;;1.97;1.30;;;14.70;99.90;;;;;;5069883;28;20186;-80
2022/05/29 13:13:21;;;;;;;2.53;0.87;;;14.70;99.90;;;;;;5052869;28;20441;-81
2022/05/29 13:15:48;;;;;;;0.73;0.60;;;15.00;99.90;;;;;;5068950;28;20424;-82
2022/05/29 13:21:17;;;;;;;1.63;0.93;;;15.30;99.90;;;;;;5068107;28;20428;-81
2022/05/29 13:23:54;;;;;;;6.30;1.60;;;15.60;99.90;;;;;;5067567;28;20471;-80
2022/05/29 13:26:24;;;;;;;1.00;0.80;;;15.90;99.90;;;;;;5049336;28;20460;-81
2022/05/29 13:28:59;;;;;;;1.93;0.87;;;16.20;99.90;;;;;;5069540;28;20449;-81
2022/05/29 13:31:27;;;;;;;0.90;0.73;;;16.40;99.90;;;;;;5072005;28;20415;-80
2022/05/29 13:33:57;;;;;;;1.43;0.73;;;16.60;99.90;;;;;;5053588;28;20939;-80
2022/05/29 13:36:43;;;;;;;1.20;0.90;;;16.80;99.90;;;;;;5053919;28;21216;-80
2022/05/29 13:39:24;;;;;;;5.20;1.37;;;16.70;99.90;;;;;;5053404;28;21003;-80
2022/05/29 13:41:56;;;;;;;2.80;1.03;;;16.20;99.90;;;;;;5054116;28;20442;-81
2022/05/29 13:44:31;;;;;;;1.30;0.90;;;15.80;99.30;;;;;;5071809;28;20466;-80
2022/05/29 13:47:19;;;;;;;1.40;0.87;;;15.70;99.90;;;;;;5036650;28;20429;-79
2022/05/29 13:50:14;;;;;;;2.87;0.80;;;16.00;99.90;;;;;;5070632;28;20397;-79
2022/05/29 13:52:58;;;;;;;1.77;0.90;;;16.10;97.30;;;;;;5052784;28;20860;-79
2022/05/29 13:55:33;;;;;;;1.70;0.90;;;15.80;99.90;;;;;;5052936;28;20837;-78
2022/05/29 14:03:58;;;;;;;4.47;0.77;;;15.80;99.90;;;;;;5070245;28;20436;-75
2022/05/29 14:06:38;;;;;;;1.27;0.70;;;16.00;98.50;;;;;;5070097;28;20458;-75